Time;durP1;ratioP1;P1;durP2;ratioP2;P2;SDS_P1;SDS_P2;PMS_P1;PMS_P2;Temp;Humidity;BMP_temperature;BMP_pressure;BME280_temperature;BME280_humidity;BME280_pressure;Samples;Min_cycle;Max_cycle;Signal;HPM_P1;HPM_P2
2022/10/06 00:03:49;;;;;;;;;;;;;;;13.25;100.00;100946.09;10065957;29;19932;-75
2022/10/06 00:08:52;;;;;;;;;;;;;;;13.18;100.00;100943.53;10065529;29;19935;-74
2022/10/06 00:13:55;;;;;;;;;;;;;;;13.05;100.00;100937.59;10065733;29;19928;-77
2022/10/06 00:18:59;;;;;;;;;;;;;;;12.98;100.00;100938.50;10065092;29;19928;-76
2022/10/06 00:24:02;;;;;;;;;;;;;;;12.96;100.00;100937.66;10064763;29;20308;-76
2022/10/06 00:29:06;;;;;;;;;;;;;;;12.99;100.00;100940.25;10064426;29;19932;-73
2022/10/06 00:34:10;;;;;;;;;;;;;;;12.99;100.00;100937.66;10063653;29;19928;-74
2022/10/06 00:39:13;;;;;;;;;;;;;;;12.99;100.00;100936.78;10064342;29;19928;-75
2022/10/06 00:44:16;;;;;;;;;;;;;;;12.92;100.00;100933.38;10064502;29;19928;-73
2022/10/06 00:49:23;;;;;;;;;;;;;;;12.84;100.00;100935.19;10064503;29;19932;-72
2022/10/06 00:54:27;;;;;;;;;;;;;;;12.79;100.00;100937.84;10063566;29;19928;-72
2022/10/06 00:59:30;;;;;;;;;;;;;;;12.77;100.00;100930.91;10063100;29;19984;-70
2022/10/06 01:04:36;;;;;;;;;;;;;;;12.71;100.00;100936.19;10063035;29;19929;-71
2022/10/06 01:09:40;;;;;;;;;;;;;;;12.70;100.00;100931.88;10063324;29;20030;-71
2022/10/06 01:14:43;;;;;;;;;;;;;;;12.65;100.00;100924.09;10063168;29;19992;-72
2022/10/06 01:19:49;;;;;;;;;;;;;;;12.70;100.00;100921.47;10063354;29;19980;-71
2022/10/06 01:24:54;;;;;;;;;;;;;;;12.73;100.00;100913.59;10062780;29;19932;-77
2022/10/06 01:29:57;;;;;;;;;;;;;;;12.71;100.00;100910.16;10062566;29;19928;-74
2022/10/06 01:35:00;;;;;;;;;;;;;;;12.64;100.00;100909.34;10062613;29;20310;-75
2022/10/06 01:40:05;;;;;;;;;;;;;;;12.69;100.00;100902.34;10062249;29;19958;-72
2022/10/06 01:45:09;;;;;;;;;;;;;;;12.72;100.00;100906.66;10062228;29;20235;-73
2022/10/06 01:50:12;;;;;;;;;;;;;;;12.72;100.00;100899.72;10062031;29;20003;-73
2022/10/06 01:55:16;;;;;;;;;;;;;;;12.72;100.00;100899.72;10062065;29;20429;-74
2022/10/06 02:00:19;;;;;;;;;;;;;;;12.73;100.00;100900.59;10061948;29;19947;-73
2022/10/06 02:05:22;;;;;;;;;;;;;;;12.71;100.00;100904.94;10061877;29;19938;-74
2022/10/06 02:10:27;;;;;;;;;;;;;;;12.72;100.00;100896.22;10062386;29;19991;-72
2022/10/06 02:15:32;;;;;;;;;;;;;;;12.72;100.00;100901.44;10061890;29;19928;-74
2022/10/06 02:20:35;;;;;;;;;;;;;;;12.70;100.00;100908.44;10061730;29;19928;-74
2022/10/06 02:25:39;;;;;;;;;;;;;;;12.72;100.00;100917.94;10061675;29;19928;-77
2022/10/06 02:30:42;;;;;;;;;;;;;;;12.76;100.00;100913.56;10061417;29;20003;-75
2022/10/06 02:35:46;;;;;;;;;;;;;;;12.79;100.00;100910.91;10061379;29;19936;-71
2022/10/06 02:40:50;;;;;;;;;;;;;;;12.79;100.00;100910.91;10061443;29;19983;-72
2022/10/06 02:45:54;;;;;;;;;;;;;;;12.72;100.00;100914.47;10061215;29;19935;-75
2022/10/06 02:50:58;;;;;;;;;;;;;;;12.68;100.00;100918.00;10061076;29;20326;-73
2022/10/06 02:56:04;;;;;;;;;;;;;;;12.68;100.00;100915.38;10061093;29;19928;-74
2022/10/06 03:01:08;;;;;;;;;;;;;;;12.69;100.00;100920.59;10067233;29;20248;-76
2022/10/06 03:06:21;;;;;;;;;;;;;;;12.78;100.00;100923.09;10067671;29;20342;-75
2022/10/06 03:11:27;;;;;;;;;;;;;;;12.75;100.00;100930.09;10067625;29;19955;-75
2022/10/06 03:16:32;;;;;;;;;;;;;;;12.73;100.00;100929.22;10067621;29;19928;-75
2022/10/06 03:21:36;;;;;;;;;;;;;;;12.74;100.00;100923.13;10067406;29;20247;-72
2022/10/06 03:26:41;;;;;;;;;;;;;;;12.71;100.00;100928.38;10066880;29;19928;-75
2022/10/06 03:31:45;;;;;;;;;;;;;;;12.74;100.00;100931.81;9728737;29;10000489;-77
2022/10/06 03:36:48;;;;;;;;;;;;;;;12.71;100.00;100946.59;10063355;29;20019;-76
2022/10/06 03:41:52;;;;;;;;;;;;;;;12.71;100.00;100936.19;10063546;29;20315;-78
2022/10/06 03:46:55;;;;;;;;;;;;;;;12.66;100.00;100943.19;10063412;29;19987;-75
2022/10/06 03:51:58;;;;;;;;;;;;;;;12.67;100.00;100939.69;10063018;29;19991;-76
2022/10/06 03:57:03;;;;;;;;;;;;;;;12.62;100.00;100939.75;10062617;29;19932;-76
2022/10/06 04:02:06;;;;;;;;;;;;;;;12.60;100.00;100949.31;10062447;29;19928;-77
2022/10/06 04:07:09;;;;;;;;;;;;;;;12.61;100.00;100950.19;10062268;29;19933;-75
2022/10/06 04:12:14;;;;;;;;;;;;;;;12.45;100.00;100948.56;10061063;29;19928;-74
2022/10/06 04:17:17;;;;;;;;;;;;;;;12.44;100.00;100946.88;10062236;29;20262;-78
2022/10/06 04:22:20;;;;;;;;;;;;;;;12.48;100.00;100954.63;10061354;29;20361;-75
2022/10/06 04:27:27;;;;;;;;;;;;;;;12.45;100.00;100956.38;10057629;29;20026;-77
2022/10/06 04:32:31;;;;;;;;;;;;;;;12.44;100.00;100963.31;10053156;29;20359;-76
2022/10/06 04:37:34;;;;;;;;;;;;;;;12.44;100.00;100971.13;10045951;29;19928;-75
2022/10/06 04:42:39;;;;;;;;;;;;;;;12.45;100.00;100964.19;10061163;29;19938;-75
2022/10/06 04:47:42;;;;;;;;;;;;;;;12.36;100.00;100982.47;10060191;29;19939;-75
2022/10/06 04:52:45;;;;;;;;;;;;;;;12.20;100.00;100986.09;10060538;29;19954;-72
2022/10/06 04:57:49;;;;;;;;;;;;;;;12.25;100.00;100989.53;10062463;29;19932;-70
2022/10/06 05:02:53;;;;;;;;;;;;;;;12.17;100.00;100988.69;10050045;29;19939;-70
2022/10/06 05:07:56;;;;;;;;;;;;;;;12.43;100.00;101005.88;10053519;29;19932;-72
2022/10/06 05:13:02;;;;;;;;;;;;;;;12.60;100.00;101010.94;10059325;29;19938;-69
2022/10/06 05:18:05;;;;;;;;;;;;;;;12.79;100.00;101009.91;10058654;29;19932;-74
2022/10/06 05:23:08;;;;;;;;;;;;;;;12.99;100.00;101017.56;10057803;29;19928;-75
2022/10/06 05:28:13;;;;;;;;;;;;;;;13.14;100.00;101007.00;10058000;29;19936;-72
2022/10/06 05:33:16;;;;;;;;;;;;;;;13.29;100.00;101017.25;10056351;29;19932;-72
2022/10/06 05:38:19;;;;;;;;;;;;;;;13.39;100.00;101021.53;10057710;29;20010;-73
2022/10/06 05:43:24;;;;;;;;;;;;;;;13.49;100.00;101025.75;10057999;29;19983;-77
2022/10/06 05:48:28;;;;;;;;;;;;;;;13.64;100.00;101029.06;10057380;29;19936;-75
2022/10/06 05:53:32;;;;;;;;;;;;;;;13.81;100.00;101037.53;10057645;29;20019;-75
2022/10/06 05:58:38;;;;;;;;;;;;;;;13.94;100.00;101044.31;10054797;29;19936;-73
2022/10/06 06:03:42;;;;;;;;;;;;;;;14.05;100.00;101061.59;10057876;29;19964;-77
2022/10/06 06:08:45;;;;;;;;;;;;;;;14.07;100.00;101055.47;10057303;29;19948;-74
2022/10/06 06:13:50;;;;;;;;;;;;;;;14.16;100.00;101070.13;10058346;29;19928;-73
2022/10/06 06:18:53;;;;;;;;;;;;;;;14.27;100.00;101058.69;10057776;29;19932;-74
2022/10/06 06:23:56;;;;;;;;;;;;;;;14.32;100.00;101087.38;10057789;29;20251;-73
2022/10/06 06:29:02;;;;;;;;;;;;;;;14.46;100.00;101082.81;10057098;29;20373;-65
2022/10/06 06:34:06;;;;;;;;;;;;;;;14.67;100.00;101099.03;10061491;29;19989;-65
2022/10/06 06:39:12;;;;;;;;;;;;;;;14.76;100.00;101106.75;10063623;29;20419;-63
2022/10/06 06:44:16;;;;;;;;;;;;;;;14.86;100.00;101123.13;10065497;29;19928;-75
2022/10/06 06:49:20;;;;;;;;;;;;;;;15.02;100.00;101135.09;10032839;29;20450;-71
2022/10/06 06:54:26;;;;;;;;;;;;;;;15.03;100.00;101132.44;10026411;29;19939;-69
2022/10/06 06:59:31;;;;;;;;;;;;;;;15.12;100.00;101147.13;10026955;29;20338;-71
2022/10/06 07:04:36;;;;;;;;;;;;;;;15.22;100.00;101148.69;10026156;29;20622;-67
2022/10/06 07:09:39;;;;;;;;;;;;;;;15.39;100.00;101143.19;10025956;29;19929;-68
2022/10/06 07:25:23;;;;;;;;;;;;;;;15.51;100.00;101162.22;10025465;29;20019;-72
2022/10/06 07:30:30;;;;;;;;;;;;;;;15.52;100.00;101166.53;10061060;29;20322;-73
2022/10/06 07:35:33;;;;;;;;;;;;;;;15.60;100.00;101167.25;10063210;29;19928;-72
2022/10/06 07:40:36;;;;;;;;;;;;;;;15.73;100.00;101178.38;10026825;29;19936;-71
2022/10/06 07:45:49;;;;;;;;;;;;;;;15.75;100.00;101187.94;10023681;29;19936;-72
2022/10/06 07:50:53;;;;;;;;;;;;;;;15.72;100.00;101184.53;10024555;29;19929;-72
2022/10/06 07:56:03;;;;;;;;;;;;;;;15.74;100.00;101177.47;10024312;29;20055;-73
2022/10/06 08:01:09;;;;;;;;;;;;;;;15.76;100.00;101183.56;10024112;29;20019;-71
2022/10/06 08:06:15;;;;;;;;;;;;;;;15.87;100.00;101182.50;10026860;29;19929;-71
2022/10/06 08:11:19;;;;;;;;;;;;;;;15.89;100.00;101190.31;10064910;29;20376;-71
2022/10/06 08:16:28;;;;;;;;;;;;;;;16.06;100.00;101206.56;10064902;29;20011;-72
2022/10/06 08:21:33;;;;;;;;;;;;;;;16.15;100.00;101207.25;10065454;29;20298;-71
2022/10/06 08:26:36;;;;;;;;;;;;;;;16.31;100.00;101206.97;10064247;29;19968;-74
2022/10/06 08:31:41;;;;;;;;;;;;;;;16.31;100.00;101202.56;10026707;29;19928;-72
2022/10/06 08:36:44;;;;;;;;;;;;;;;16.28;100.00;101207.88;10026129;29;19929;-72
2022/10/06 08:42:09;;;;;;;;;;;;;;;16.35;100.00;101201.63;10025993;29;19940;-72
2022/10/06 08:47:17;;;;;;;;;;;;;;;16.38;100.00;101211.16;10027678;29;20380;-70
2022/10/06 08:52:26;;;;;;;;;;;;;;;16.53;100.00;101210.91;10063858;29;19935;-72
2022/10/06 08:57:34;;;;;;;;;;;;;;;16.69;100.00;101213.16;9726237;29;10000370;-72
2022/10/06 09:02:42;;;;;;;;;;;;;;;16.89;100.00;101221.47;10060593;29;20018;-73
2022/10/06 09:07:51;;;;;;;;;;;;;;;17.25;99.21;101239.00;10059244;29;19928;-74
2022/10/06 09:12:56;;;;;;;;;;;;;;;17.47;97.77;101251.63;10059828;29;19963;-74
2022/10/06 09:18:09;;;;;;;;;;;;;;;17.69;97.21;101256.31;10059277;29;19938;-73
2022/10/06 09:23:15;;;;;;;;;;;;;;;17.84;95.92;101262.97;10059567;29;19939;-73
2022/10/06 09:28:18;;;;;;;;;;;;;;;17.86;95.47;101269.06;10059083;29;19928;-74
2022/10/06 09:33:24;;;;;;;;;;;;;;;17.89;95.63;101280.34;10059328;29;19954;-76
2022/10/06 09:38:44;;;;;;;;;;;;;;;18.04;94.79;101276.44;10053810;29;19932;-74
2022/10/06 09:43:52;;;;;;;;;;;;;;;18.37;95.33;101276.44;10020817;29;19932;-72
2022/10/06 09:49:10;;;;;;;;;;;;;;;18.77;92.63;101270.06;10040243;29;19928;-71
2022/10/06 09:54:14;;;;;;;;;;;;;;;19.04;91.38;101277.13;10057052;29;20337;-72
2022/10/06 09:59:20;;;;;;;;;;;;;;;19.29;89.38;101286.88;10057699;29;19934;-72
2022/10/06 10:04:25;;;;;;;;;;;;;;;19.66;88.45;101288.38;10058396;29;19979;-72
2022/10/06 10:09:30;;;;;;;;;;;;;;;19.62;88.05;101289.41;10053922;29;19928;-75
2022/10/06 10:14:36;;;;;;;;;;;;;;;19.70;88.35;101293.50;10027839;29;20282;-77
2022/10/06 10:19:41;;;;;;;;;;;;;;;19.84;87.61;101300.97;10028294;29;19939;-70
2022/10/06 10:24:50;;;;;;;;;;;;;;;20.33;85.25;101299.28;10027844;29;19967;-75
2022/10/06 10:30:00;;;;;;;;;;;;;;;20.99;82.63;101298.63;10027895;29;20277;-71
2022/10/06 10:35:08;;;;;;;;;;;;;;;20.87;81.21;101298.19;10027320;29;19964;-72
2022/10/06 10:40:22;;;;;;;;;;;;;;;20.53;81.21;101304.72;10027478;29;19939;-69
2022/10/06 10:45:31;;;;;;;;;;;;;;;20.00;83.11;101305.66;10026894;29;20023;-71
2022/10/06 10:50:39;;;;;;;;;;;;;;;19.64;84.61;101317.41;10040470;29;20537;-70
2022/10/06 10:55:46;;;;;;;;;;;;;;;19.36;85.76;101317.41;10064810;29;19929;-68
2022/10/06 11:00:52;;;;;;;;;;;;;;;19.19;86.30;101334.59;10064469;29;20007;-71
2022/10/06 11:06:04;;;;;;;;;;;;;;;18.99;87.35;101344.84;10064379;29;19936;-71
2022/10/06 11:11:13;;;;;;;;;;;;;;;18.88;88.39;101337.25;10041275;29;19942;-72
2022/10/06 11:16:22;;;;;;;;;;;;;;;18.77;89.49;101338.47;10063333;29;19948;-72
2022/10/06 11:21:27;;;;;;;;;;;;;;;18.84;89.68;101332.13;10061625;29;19928;-72
2022/10/06 11:26:41;;;;;;;;;;;;;;;19.03;89.65;101341.22;10062535;29;19928;-73
2022/10/06 11:31:53;;;;;;;;;;;;;;;19.00;90.20;101342.16;10062319;29;19928;-72
2022/10/06 11:37:01;;;;;;;;;;;;;;;19.15;89.92;101343.50;10062335;29;19927;-71
2022/10/06 11:42:10;;;;;;;;;;;;;;;19.96;86.74;101346.22;10062518;29;19959;-72
2022/10/06 11:47:16;;;;;;;;;;;;;;;20.95;82.84;101344.50;10037797;29;20432;-73
2022/10/06 11:52:35;;;;;;;;;;;;;;;20.63;83.14;101347.44;10043464;29;19935;-69
2022/10/06 11:58:03;;;;;;;;;;;;;;;20.06;84.53;101360.81;10031396;29;19967;-70
2022/10/06 12:03:55;;;;;;;;;;;;;;;19.67;84.31;101364.75;10034810;29;19937;-68
2022/10/06 12:08:58;;;;;;;;;;;;;;;19.64;84.15;101363.97;10023743;29;19936;-73
2022/10/06 12:14:03;;;;;;;;;;;;;;;20.34;79.96;101366.94;10022744;29;20011;-71
2022/10/06 12:19:31;;;;;;;;;;;;;;;20.86;76.69;101357.19;10024337;29;19960;-72
2022/10/06 12:24:40;;;;;;;;;;;;;;;22.15;71.54;101354.75;9725004;29;9999877;-73
2022/10/06 12:29:47;;;;;;;;;;;;;;;22.78;69.32;101361.72;10054744;29;19928;-77
2022/10/06 12:34:55;;;;;;;;;;;;;;;21.70;72.07;101388.31;10057182;29;20321;-75
2022/10/06 12:40:13;;;;;;;;;;;;;;;21.02;71.43;101398.81;9727708;29;10000193;-76
2022/10/06 12:45:18;;;;;;;;;;;;;;;20.72;73.41;101396.41;10059477;29;20023;-75
2022/10/06 12:50:24;;;;;;;;;;;;;;;20.28;74.59;101405.81;10060850;29;20302;-74
2022/10/06 12:55:33;;;;;;;;;;;;;;;19.89;75.74;101405.31;10024123;29;19928;-76
2022/10/06 13:00:39;;;;;;;;;;;;;;;19.63;77.14;101412.28;10022062;29;20269;-64
2022/10/06 13:05:48;;;;;;;;;;;;;;;19.41;78.42;101427.88;10058418;29;19928;-70
2022/10/06 13:11:10;;;;;;;;;;;;;;;19.29;79.85;101436.09;10059832;29;20018;-71
2022/10/06 13:16:14;;;;;;;;;;;;;;;19.25;81.05;101439.72;10034554;29;20007;-68
2022/10/06 13:21:17;;;;;;;;;;;;;;;19.21;81.15;101443.31;10057635;29;19942;-69
2022/10/06 13:26:22;;;;;;;;;;;;;;;19.14;81.06;101457.56;10020294;29;19928;-69
2022/10/06 13:31:27;;;;;;;;;;;;;;;19.08;80.21;101466.50;10053039;29;19990;-67
2022/10/06 13:36:31;;;;;;;;;;;;;;;19.29;79.18;101459.78;10058758;29;19932;-66
2022/10/06 13:41:35;;;;;;;;;;;;;;;19.54;78.49;101456.44;10058511;29;19936;-69
2022/10/06 13:46:43;;;;;;;;;;;;;;;19.80;77.86;101453.03;10027905;29;20027;-67
2022/10/06 13:51:48;;;;;;;;;;;;;;;19.86;76.94;101457.25;10057675;29;19928;-66
2022/10/06 13:56:52;;;;;;;;;;;;;;;19.77;76.48;101468.94;10025864;29;19988;-67
2022/10/06 14:01:57;;;;;;;;;;;;;;;19.70;76.07;101475.28;10057179;29;19936;-67
2022/10/06 14:07:01;;;;;;;;;;;;;;;19.65;73.74;101486.88;10046423;29;19936;-66
2022/10/06 14:12:06;;;;;;;;;;;;;;;19.58;72.11;101480.03;10058180;29;19939;-66
2022/10/06 14:17:20;;;;;;;;;;;;;;;19.46;71.57;101476.88;10058234;29;20025;-67
2022/10/06 14:22:30;;;;;;;;;;;;;;;19.39;69.68;101483.22;10057625;29;20386;-79
2022/10/06 14:27:33;;;;;;;;;;;;;;;19.27;67.78;101498.44;10058623;29;20332;-75
2022/10/06 14:32:39;;;;;;;;;;;;;;;19.13;66.57;101511.13;10055426;29;20006;-76
2022/10/06 14:37:42;;;;;;;;;;;;;;;18.95;65.03;101522.13;10047396;29;19938;-73
2022/10/06 14:42:45;;;;;;;;;;;;;;;18.81;65.24;101525.09;10055455;29;19992;-76
2022/10/06 14:47:54;;;;;;;;;;;;;;;18.70;65.08;101526.28;10019798;29;19955;-74
2022/10/06 14:52:58;;;;;;;;;;;;;;;18.66;65.48;101535.13;10020265;29;20012;-77
2022/10/06 14:58:02;;;;;;;;;;;;;;;18.61;65.59;101552.78;10038165;29;19928;-74
2022/10/06 15:03:07;;;;;;;;;;;;;;;18.51;64.78;101548.66;10064225;29;19937;-73
2022/10/06 15:08:10;;;;;;;;;;;;;;;18.45;65.24;101549.66;10064281;29;19943;-77
2022/10/06 15:13:13;;;;;;;;;;;;;;;18.41;65.78;101559.38;10064168;29;19992;-70
2022/10/06 15:18:18;;;;;;;;;;;;;;;18.35;66.20;101567.41;10064196;29;19928;-73
2022/10/06 15:23:21;;;;;;;;;;;;;;;18.29;67.23;101556.16;10063763;29;19983;-68
2022/10/06 15:33:46;;;;;;;;;;;;;;;18.22;68.29;101580.84;10063573;29;19928;-68
2022/10/06 15:38:55;;;;;;;;;;;;;;;18.18;67.63;101590.56;10063982;29;20362;-73
2022/10/06 15:43:59;;;;;;;;;;;;;;;18.16;68.13;101600.22;10063048;29;19928;-69
2022/10/06 15:49:04;;;;;;;;;;;;;;;18.00;68.45;101611.94;10062791;29;19943;-72
2022/10/06 15:54:09;;;;;;;;;;;;;;;17.93;68.90;101623.47;10062687;29;19938;-68
2022/10/06 15:59:12;;;;;;;;;;;;;;;17.88;68.98;101627.09;10062588;29;20283;-69
2022/10/06 16:04:24;;;;;;;;;;;;;;;17.77;70.24;101648.34;10062129;29;19928;-72
2022/10/06 16:09:29;;;;;;;;;;;;;;;17.65;70.67;101660.81;10062678;29;19928;-67
2022/10/06 16:14:32;;;;;;;;;;;;;;;17.62;70.31;101663.50;10062162;29;19955;-72
2022/10/06 16:19:38;;;;;;;;;;;;;;;17.57;69.21;101668.81;10061765;29;20323;-67
2022/10/06 16:24:42;;;;;;;;;;;;;;;17.53;68.37;101674.16;10061762;29;19932;-68
2022/10/06 16:29:45;;;;;;;;;;;;;;;17.49;67.39;101686.47;10061329;29;19928;-68
2022/10/06 16:34:50;;;;;;;;;;;;;;;17.36;66.93;101705.91;10061555;29;19938;-72
2022/10/06 16:39:53;;;;;;;;;;;;;;;17.36;66.86;101715.56;10061241;29;19938;-65
2022/10/06 16:44:56;;;;;;;;;;;;;;;17.30;67.23;101713.88;10060963;29;20035;-69
2022/10/06 16:50:00;;;;;;;;;;;;;;;17.18;67.50;101730.69;10060804;29;20022;-65
2022/10/06 16:55:04;;;;;;;;;;;;;;;17.15;67.24;101732.50;10060827;29;19983;-65
2022/10/06 17:00:08;;;;;;;;;;;;;;;17.05;67.89;101734.38;10060497;29;20022;-73
2022/10/06 17:05:12;;;;;;;;;;;;;;;17.00;67.80;101743.19;10060746;29;19932;-73
2022/10/06 17:10:15;;;;;;;;;;;;;;;16.93;68.02;101745.03;10059736;29;19932;-74
2022/10/06 17:15:22;;;;;;;;;;;;;;;16.87;68.35;101763.50;10059669;29;20014;-73
2022/10/06 17:20:27;;;;;;;;;;;;;;;16.84;67.66;101770.53;10059890;29;19934;-71
2022/10/06 17:25:30;;;;;;;;;;;;;;;16.74;68.21;101766.31;10059436;29;20011;-73
2022/10/06 17:30:33;;;;;;;;;;;;;;;16.66;68.64;101779.50;10059383;29;20027;-74
2022/10/06 17:35:38;;;;;;;;;;;;;;;16.61;68.45;101781.31;10059176;29;20027;-63
2022/10/06 17:40:43;;;;;;;;;;;;;;;16.52;68.25;101791.03;10025462;29;19933;-63
2022/10/06 17:45:46;;;;;;;;;;;;;;;16.51;68.42;101794.53;10021104;29;20001;-68
2022/10/06 17:50:58;;;;;;;;;;;;;;;16.46;68.43;101802.47;10020941;29;19933;-65
2022/10/06 17:56:06;;;;;;;;;;;;;;;16.49;67.99;101797.19;10047266;29;19938;-66
2022/10/06 18:01:11;;;;;;;;;;;;;;;16.42;68.44;101805.97;10057693;29;19955;-66
2022/10/06 18:06:16;;;;;;;;;;;;;;;16.34;68.96;101813.06;10057804;29;19938;-64
2022/10/06 18:11:37;;;;;;;;;;;;;;;16.26;70.22;101813.97;10055952;29;19988;-67
2022/10/06 18:16:41;;;;;;;;;;;;;;;16.15;70.83;101820.19;10056437;29;19942;-60
2022/10/06 18:21:46;;;;;;;;;;;;;;;16.07;71.60;101821.16;10056508;29;19928;-66
2022/10/06 18:26:50;;;;;;;;;;;;;;;15.96;73.29;101831.72;10056332;29;20253;-71
2022/10/06 18:31:53;;;;;;;;;;;;;;;15.89;74.71;101827.41;10061641;29;19928;-73
2022/10/06 18:36:59;;;;;;;;;;;;;;;15.86;73.94;101831.81;10062978;29;20043;-70
2022/10/06 18:42:04;;;;;;;;;;;;;;;15.85;73.91;101838.81;10062902;29;19938;-73
2022/10/06 18:52:42;;;;;;;;;;;;;;;15.79;74.90;101853.72;9977638;29;20619;-72
2022/10/06 18:57:46;;;;;;;;;;;;;;;15.69;76.01;101850.28;10054005;29;19936;-73
2022/10/06 19:02:50;;;;;;;;;;;;;;;15.59;77.21;101859.06;10002429;29;1807091;-71
2022/10/06 19:07:55;;;;;;;;;;;;;;;15.49;77.97;101869.59;10066244;29;20015;-73
2022/10/06 19:12:58;;;;;;;;;;;;;;;15.39;78.91;101871.41;10067429;29;19928;-72
2022/10/06 19:18:02;;;;;;;;;;;;;;;15.26;80.11;101881.91;10067504;29;19938;-72
2022/10/06 19:23:07;;;;;;;;;;;;;;;15.18;81.13;101889.81;10064334;29;19928;-74
2022/10/06 19:28:10;;;;;;;;;;;;;;;15.07;82.19;101891.59;10066577;29;20401;-72
2022/10/06 19:33:13;;;;;;;;;;;;;;;15.06;81.87;101895.94;10066634;29;20031;-73
2022/10/06 19:38:18;;;;;;;;;;;;;;;14.96;82.72;101906.47;10064985;29;19932;-72
2022/10/06 19:43:24;;;;;;;;;;;;;;;14.91;82.97;101909.06;10065075;29;19928;-73
2022/10/06 19:48:28;;;;;;;;;;;;;;;14.88;82.65;101916.06;10066173;29;20027;-73
2022/10/06 19:53:33;;;;;;;;;;;;;;;14.76;83.53;101914.34;10066050;29;19928;-73
2022/10/06 19:58:36;;;;;;;;;;;;;;;14.76;84.27;101916.09;10066114;29;20015;-73
2022/10/06 20:03:40;;;;;;;;;;;;;;;14.72;84.72;101935.28;10063042;29;19928;-74
2022/10/06 20:08:44;;;;;;;;;;;;;;;14.63;85.10;101933.50;10065333;29;20323;-71
2022/10/06 20:13:48;;;;;;;;;;;;;;;14.53;85.38;101938.78;10065081;29;19928;-72
2022/10/06 20:18:51;;;;;;;;;;;;;;;14.47;85.92;101939.66;10063962;29;19938;-72
2022/10/06 20:23:56;;;;;;;;;;;;;;;14.45;86.23;101943.13;10065084;29;19928;-72
2022/10/06 20:29:00;;;;;;;;;;;;;;;14.38;86.36;101941.38;10065075;29;20023;-73
2022/10/06 20:34:06;;;;;;;;;;;;;;;14.36;86.64;101948.34;10064263;29;19928;-72
2022/10/06 20:44:33;;;;;;;;;;;;;;;14.12;87.93;101967.47;10053736;29;19934;-70
2022/10/06 20:49:36;;;;;;;;;;;;;;;14.13;87.99;101953.56;10062057;29;19928;-72
2022/10/06 20:54:41;;;;;;;;;;;;;;;14.03;88.48;101964.84;10061301;29;19928;-74
2022/10/06 20:59:44;;;;;;;;;;;;;;;14.04;88.78;101963.09;10061875;29;20019;-72
2022/10/06 21:04:48;;;;;;;;;;;;;;;13.90;88.48;101971.78;10062806;29;19928;-71
2022/10/06 21:09:52;;;;;;;;;;;;;;;13.86;89.12;101969.16;10063346;29;19928;-73
2022/10/06 21:14:56;;;;;;;;;;;;;;;13.66;90.15;101971.72;10061692;29;19932;-70
2022/10/06 21:19:59;;;;;;;;;;;;;;;13.67;89.92;101969.97;10072850;29;20265;-71
2022/10/06 21:25:04;;;;;;;;;;;;;;;13.53;90.29;101969.94;10052874;29;19947;-72
2022/10/06 21:30:09;;;;;;;;;;;;;;;13.49;90.72;101975.13;10062606;29;20015;-71
2022/10/06 21:35:12;;;;;;;;;;;;;;;13.37;91.38;101983.78;10062623;29;19928;-73
2022/10/06 21:40:16;;;;;;;;;;;;;;;13.33;91.25;101978.53;10062382;29;19950;-75
2022/10/06 21:45:20;;;;;;;;;;;;;;;13.20;91.74;101985.41;10062239;29;20012;-74
2022/10/06 21:50:26;;;;;;;;;;;;;;;13.14;92.13;101992.34;10062238;29;20244;-73
2022/10/06 21:55:31;;;;;;;;;;;;;;;13.11;92.08;101993.22;10061992;29;20258;-73
2022/10/06 22:00:34;;;;;;;;;;;;;;;12.98;92.54;101993.94;10060714;29;19928;-73
2022/10/06 22:05:37;;;;;;;;;;;;;;;12.85;93.42;101997.34;10060066;29;19928;-73
2022/10/06 22:10:42;;;;;;;;;;;;;;;12.63;94.16;102004.13;10061940;29;20095;-70
2022/10/06 22:15:45;;;;;;;;;;;;;;;12.52;96.79;102010.13;10061830;29;19964;-72
2022/10/06 22:20:48;;;;;;;;;;;;;;;12.64;96.66;102010.22;10061539;29;19939;-69
2022/10/06 22:25:56;;;;;;;;;;;;;;;12.51;97.00;102005.78;10061488;29;20353;-69
2022/10/06 22:31:04;;;;;;;;;;;;;;;12.38;97.90;102003.91;10061823;29;19928;-72
2022/10/06 22:36:08;;;;;;;;;;;;;;;12.31;98.25;102003.00;10061882;29;19938;-69
2022/10/06 22:41:13;;;;;;;;;;;;;;;12.36;98.52;102005.63;10061334;29;19941;-75
2022/10/06 22:46:16;;;;;;;;;;;;;;;12.45;96.87;102013.53;10061219;29;19928;-76
2022/10/06 22:51:19;;;;;;;;;;;;;;;12.54;96.32;102005.78;10061152;29;20019;-74
2022/10/06 22:56:27;;;;;;;;;;;;;;;12.45;97.02;102008.31;10061335;29;19928;-74
2022/10/06 23:01:31;;;;;;;;;;;;;;;12.34;97.65;102013.41;10061082;29;19954;-76
2022/10/06 23:06:34;;;;;;;;;;;;;;;12.39;97.21;102010.88;9724025;29;9999732;-76
2022/10/06 23:11:39;;;;;;;;;;;;;;;12.32;97.13;102014.28;10057794;29;19935;-75
2022/10/06 23:16:42;;;;;;;;;;;;;;;12.24;96.73;102010.72;10062442;29;19934;-76
2022/10/06 23:21:45;;;;;;;;;;;;;;;12.25;97.36;102022.88;10064340;29;19932;-76
2022/10/06 23:26:50;;;;;;;;;;;;;;;12.11;97.71;102021.88;10064398;29;19928;-76
2022/10/06 23:31:53;;;;;;;;;;;;;;;12.14;97.77;102021.91;10063911;29;19942;-75
2022/10/06 23:36:56;;;;;;;;;;;;;;;12.07;98.04;102023.56;10063792;29;20023;-69
2022/10/06 23:42:00;;;;;;;;;;;;;;;12.04;98.25;102023.56;10063911;29;19928;-69
2022/10/06 23:47:04;;;;;;;;;;;;;;;11.93;100.00;102030.34;10063377;29;19932;-65
2022/10/06 23:52:07;;;;;;;;;;;;;;;11.98;99.32;102023.47;10063030;29;20254;-65
2022/10/06 23:57:11;;;;;;;;;;;;;;;11.89;100.00;102038.13;10063062;29;19928;-65
